Aeroporto :
LOGIN :

Iscrizione | Disclaimer

   EN    FR    IT 

 










Sommario :    VFR   VFR Marginale   IFR   IFR Intensivo   IFR Molto Intensivo
Visibilità : 
Base nubi : 
>= 8 km
>= 3000ft
5 / 8 km
1000 / 3000 ft
1500m / 5 km
500 / 1000 ft
800 / 1500m
200 / 500 ft
< 800m
< 200 ft
Simboli :   Temporali  Nebbia  Neve Forte  Precipitazioni Forti  Vento > 20 kt
SIGMETs :   Varie  Temporali  Ghiacco  Turbolenza  Onda orograficha  Ceneri Vulcaniche






- Altitudine del aeroporto : 36 ft
- Codice IATA : LTQ


LFAT - Le Touquet

ULTIMO METAR :
  • 271200Z AUTO 27015KT 230V310 9999 BKN034 17/10 Q1013 TEMPO 4000 SHRA BKN017TCU BECMG 26020G35KT

METARs OBSOLETI :
  • 271130Z AUTO 27014G26KT 230V310 9999 BKN029 BKN035 16/12 Q1012 TEMPO 4000 SHRA BKN017TCU
  • 271100Z AUTO 27013G25KT 220V300 9999 BKN030 OVC090 17/12 Q1012 BECMG 26020G35KT
  • 271030Z AUTO 26013G23KT 230V300 9999 FEW023 BKN030 BKN045 17/13 Q1011 BECMG 26020G35KT
  • 271000Z AUTO 21016G28KT 160V270 4400 -RA BR SCT011/// BKN019/// BKN024/// ///CB 16/15 Q1010 BECMG 9999 NSW BKN020
  • 270930Z AUTO 17011KT 140V210 5000 -RA BR BKN008/// OVC017/// ///TCU 17/17 Q1009 BECMG 26020G35KT BKN020

TAF TAF LFAT
Valido dal 27 a 12 ore il 27 a 21 ore UTC


271100Z 2712/2721 26020G35KT 9999 BKN025
PROB30
TEMPO 2713/2721 4000 SHRA BKN017TCU
ATIS : +33 3 21 06 62 84



MetMap, La meteo Aeronautica in un colpo d'occhio ! - Copyright ORBIFLY Dicembre 2007 - Disclaimer

ORBIFLY MET'MAP TEAM :

Programmazione e sviluppo : Alexandra Zaïnal
Concezione : Baudouin d'Aumeries
Aiuto per la programmazione : Marc-Olivier Méhu
Supporto tecnico e logistico : Manuel Goepfert
Aiuto per la traduzione : Arnaldo La Scala

Contatto : metmap@orbifly.com




FONTI E CREDITI :

   NOAA